createdAt,value
2023-05-09T00:00:39.132Z,95472.22
2023-05-09T00:03:06.692Z,95471.25
2023-05-09T00:05:34.136Z,95479.09
2023-05-09T00:08:02.909Z,95471.25
2023-05-09T00:10:30.952Z,95476.50
2023-05-09T00:12:59.722Z,95472.88
2023-05-09T00:15:28.825Z,95474.00
2023-05-09T00:17:56.324Z,95472.22
2023-05-09T00:20:23.953Z,95460.91
2023-05-09T00:22:51.572Z,95458.28
2023-05-09T00:25:20.404Z,95464.38
2023-05-09T00:27:47.903Z,95460.78
2023-05-09T00:30:15.416Z,95461.63
2023-05-09T00:32:43.112Z,95460.78
2023-05-09T00:35:10.850Z,95461.63
2023-05-09T00:37:38.332Z,95462.28
2023-05-09T00:40:06.900Z,95451.94
2023-05-09T00:42:35.812Z,95463.25
2023-05-09T00:45:03.262Z,95458.84
2023-05-09T00:47:30.920Z,95447.53
2023-05-09T00:49:59.614Z,95450.97
2023-05-09T00:52:27.120Z,95444.91
2023-05-09T00:54:55.517Z,95443.97
2023-05-09T00:57:23.229Z,95449.19
2023-05-09T00:59:52.174Z,95437.06
2023-05-09T01:02:19.954Z,95443.13
2023-05-09T03:41:59.365Z,95358.03
2023-05-09T03:44:26.996Z,95354.59
2023-05-09T03:46:54.552Z,95351.81
2023-05-09T03:49:22.113Z,95357.03
2023-05-09T03:51:49.688Z,95356.22
2023-05-09T03:54:17.157Z,95352.81
2023-05-09T03:56:44.612Z,95364.78
2023-05-09T03:59:13.434Z,95357.88
2023-05-09T04:01:40.945Z,95361.31
2023-05-09T04:04:08.688Z,95357.03
2023-05-09T04:06:37.281Z,95369.19
2023-05-09T04:09:04.805Z,95362.28
2023-05-09T04:11:32.245Z,95358.72
2023-05-09T04:13:59.726Z,95370.00
2023-05-09T04:16:28.524Z,95370.00
2023-05-09T04:18:55.983Z,95365.56
2023-05-09T04:21:23.395Z,95374.41
2023-05-09T04:23:51.444Z,95372.63
2023-05-09T04:26:19.050Z,95368.34
2023-05-09T04:28:46.479Z,95372.63
2023-05-09T04:31:14.825Z,95363.13
2023-05-09T04:33:43.736Z,95371.78
2023-05-09T04:38:38.852Z,95363.94
2023-05-09T04:41:06.521Z,95357.03
2023-05-09T04:43:34.203Z,95358.84
2023-05-09T04:46:02.567Z,95362.28
2023-05-09T04:48:30.034Z,95360.50
2023-05-09T04:50:58.869Z,95357.03
2023-05-09T04:53:26.731Z,95357.88
2023-05-09T04:55:54.236Z,95355.44
2023-05-09T04:58:21.755Z,95345.75
2023-05-09T05:00:50.110Z,95349.19
2023-05-09T05:03:18.091Z,95344.13
2023-05-09T05:05:45.642Z,95355.44
2023-05-09T05:08:14.494Z,95351.81
2023-05-09T05:10:41.955Z,95354.44
2023-05-09T05:13:09.462Z,95350.84
2023-05-09T05:15:36.871Z,95349.19
2023-05-09T05:18:04.607Z,95355.25
2023-05-09T05:20:32.079Z,95348.38
2023-05-09T05:22:59.498Z,95350.03
2023-05-09T05:25:28.350Z,95343.97
2023-05-09T05:27:55.777Z,95343.84
2023-05-09T05:30:23.210Z,95341.34
2023-05-09T05:32:50.689Z,95343.84
2023-05-09T05:35:19.295Z,95340.53
2023-05-09T05:37:48.945Z,95342.19
2023-05-09T05:40:16.753Z,95339.56
2023-05-09T05:42:46.601Z,95344.78
2023-05-09T05:45:14.256Z,95342.19
2023-05-09T05:47:41.892Z,95342.19
2023-05-09T05:50:11.847Z,95342.19
2023-05-09T05:52:39.518Z,95336.13
2023-05-09T05:55:07.583Z,95333.50
2023-05-09T05:57:35.656Z,95330.88
2023-05-09T06:00:06.363Z,95323.03
2023-05-09T06:02:33.946Z,95329.09
2023-05-09T06:05:01.443Z,95328.41
2023-05-09T06:07:28.945Z,95324.00
2023-05-09T06:09:56.442Z,95322.34
2023-05-09T06:12:25.211Z,95318.78
2023-05-09T06:14:53.549Z,95324.00
2023-05-09T06:17:22.374Z,95313.53
2023-05-09T06:19:50.032Z,95309.09
2023-05-09T06:22:17.680Z,95313.53
2023-05-09T06:24:45.098Z,95305.69
2023-05-09T06:27:12.569Z,95314.22
2023-05-09T06:29:40.080Z,95310.75
2023-05-09T06:32:07.527Z,95307.31
2023-05-09T06:34:36.342Z,95319.44
2023-05-09T06:37:03.798Z,95322.88
2023-05-09T06:39:31.301Z,95307.19
2023-05-09T06:41:58.769Z,95302.09
2023-05-09T06:44:26.774Z,95299.34
2023-05-09T06:46:54.232Z,95294.91
2023-05-09T06:49:21.656Z,95295.72
2023-05-09T06:51:50.426Z,95288.03
2023-05-09T06:54:18.346Z,95295.72
2023-05-09T06:56:45.838Z,95289.66
2023-05-09T06:59:13.507Z,95290.50
2023-05-09T07:01:41.189Z,95290.50
2023-05-09T07:04:08.718Z,95285.25
2023-05-09T07:06:36.204Z,95282.63
2023-05-09T07:09:05.283Z,95282.63
2023-05-09T07:11:35.274Z,95279.06
2023-05-09T07:14:02.777Z,95274.78
2023-05-09T07:16:30.557Z,95276.56
2023-05-09T07:18:58.069Z,95275.78
2023-05-09T07:21:25.738Z,95278.22
2023-05-09T07:23:53.225Z,95266.94
2023-05-09T07:26:22.264Z,95260.75
2023-05-09T07:28:49.707Z,95255.63
2023-05-09T07:31:17.179Z,95257.28
2023-05-09T07:33:44.667Z,95262.53
2023-05-09T07:36:13.199Z,95261.69
2023-05-09T07:38:40.741Z,95261.53
2023-05-09T07:41:08.201Z,95258.91
2023-05-09T07:43:37.078Z,95257.28
2023-05-09T07:46:04.764Z,95246.81
2023-05-09T07:48:32.277Z,95245.81
2023-05-09T07:50:59.750Z,95237.31
2023-05-09T07:53:27.361Z,95231.13
2023-05-09T07:55:54.815Z,95236.34
2023-05-09T07:58:22.310Z,95234.69
2023-05-09T08:00:51.105Z,95227.66
2023-05-09T08:03:20.728Z,95224.22
2023-05-09T08:05:48.287Z,95215.59
2023-05-09T08:08:15.713Z,95215.41
2023-05-09T08:10:43.168Z,95223.25
2023-05-09T08:13:10.644Z,95225.88
2023-05-09T08:15:38.183Z,95219.66
2023-05-09T08:18:07.270Z,95219.66
2023-05-09T08:20:34.820Z,95212.78
2023-05-09T08:23:02.249Z,95212.63
2023-05-09T08:25:29.801Z,95208.22
2023-05-09T08:27:57.262Z,95209.19
2023-05-09T08:30:24.801Z,95210.00
2023-05-09T08:32:52.259Z,95202.16
2023-05-09T08:35:21.131Z,95191.69
2023-05-09T08:37:48.849Z,95190.06
2023-05-09T08:40:17.175Z,95190.06
2023-05-09T08:42:45.825Z,95183.84
2023-05-09T08:45:14.803Z,95176.16
2023-05-09T08:47:42.677Z,95184.00
2023-05-09T08:50:11.530Z,95175.31
2023-05-09T08:52:40.734Z,95173.53
2023-05-09T08:55:08.508Z,95164.03
2023-05-09T08:57:36.269Z,95165.84
2023-05-09T09:00:06.160Z,95160.63
2023-05-09T09:02:33.669Z,95153.56
2023-05-09T09:05:02.293Z,95158.78
2023-05-09T09:07:31.176Z,95154.56
2023-05-09T09:10:00.662Z,95157.16
2023-05-09T09:12:28.139Z,95158.00
2023-05-09T09:14:56.197Z,95148.50
2023-05-09T09:17:27.955Z,95150.16
2023-05-09T09:19:56.690Z,95158.78
2023-05-09T09:22:24.831Z,95152.75
2023-05-09T09:24:52.281Z,95138.03
2023-05-09T09:27:21.041Z,95135.41
2023-05-09T09:29:48.438Z,95129.22
2023-05-09T09:32:15.895Z,95128.38
2023-05-09T09:34:43.409Z,95128.53
2023-05-09T09:37:10.841Z,95118.88
2023-05-09T09:39:38.369Z,95104.97
2023-05-09T09:42:13.723Z,95108.41
2023-05-09T09:44:42.950Z,95104.16
2023-05-09T09:47:11.032Z,95102.34
2023-05-09T09:49:38.480Z,95102.34
2023-05-09T09:52:05.944Z,95091.88
2023-05-09T09:54:33.749Z,95084.03
2023-05-09T09:57:01.915Z,95084.84
2023-05-09T09:59:29.389Z,95081.28
2023-05-09T10:01:59.753Z,95080.44
2023-05-09T10:04:28.466Z,95078.66
2023-05-09T10:06:56.825Z,95069.97
2023-05-09T10:09:24.925Z,95069.00
2023-05-09T10:11:53.057Z,95065.56
2023-05-09T10:14:22.063Z,95056.88
2023-05-09T10:16:50.471Z,95051.66
2023-05-09T10:19:23.301Z,95052.47
2023-05-09T10:21:52.267Z,95039.41
2023-05-09T10:24:23.988Z,95042.00
2023-05-09T10:26:53.960Z,95035.13
2023-05-09T10:29:23.307Z,95034.16
2023-05-09T10:31:54.871Z,95034.16
2023-05-09T10:34:26.180Z,95032.50
2023-05-09T10:36:54.788Z,95028.94
2023-05-09T10:39:23.353Z,95020.44
2023-05-09T10:41:51.024Z,95019.44
2023-05-09T10:44:19.061Z,95004.53
2023-05-09T10:46:47.019Z,95002.09
2023-05-09T10:49:15.035Z,94997.66
2023-05-09T10:51:43.830Z,94997.66
2023-05-09T10:54:16.040Z,94999.50
2023-05-09T10:56:43.520Z,94989.03
2023-05-09T10:59:26.646Z,94985.56
2023-05-09T11:02:00.941Z,94978.56
2023-05-09T11:04:28.615Z,94972.50
2023-05-09T11:06:57.837Z,94970.69
2023-05-09T11:09:28.056Z,94957.63
2023-05-09T11:11:56.281Z,94950.72
2023-05-09T11:14:30.313Z,94951.56
2023-05-09T11:16:58.228Z,94941.91
2023-05-09T11:19:43.315Z,94939.28
2023-05-09T11:22:15.774Z,94934.84
2023-05-09T11:24:46.156Z,94936.50
2023-05-09T11:27:17.150Z,94924.38
2023-05-09T11:29:45.428Z,94933.06
2023-05-09T11:32:14.842Z,94929.63
2023-05-09T11:34:44.056Z,94930.31
2023-05-09T11:37:12.372Z,94919.00
2023-05-09T11:40:00.809Z,94913.78
2023-05-09T11:42:30.547Z,94921.63
2023-05-09T11:44:58.317Z,94912.78
2023-05-09T11:47:26.105Z,94902.47
2023-05-09T11:49:53.594Z,94904.94
2023-05-09T11:52:21.731Z,94905.94
2023-05-09T11:54:49.714Z,94905.75
2023-05-09T11:57:18.022Z,94893.66
2023-05-09T11:59:46.951Z,94896.28
2023-05-09T12:02:14.956Z,94887.59
2023-05-09T12:04:42.496Z,94886.59
2023-05-09T12:07:12.292Z,94878.94
2023-05-09T12:09:39.871Z,94885.00
2023-05-09T12:12:12.208Z,94871.06
2023-05-09T12:14:40.533Z,94865.03
2023-05-09T12:17:09.761Z,94856.19
2023-05-09T12:19:37.706Z,94857.16
2023-05-09T12:22:06.903Z,94855.38
2023-05-09T12:24:36.457Z,94857.16
2023-05-09T12:27:04.831Z,94846.69
2023-05-09T12:29:32.368Z,94838.03
2023-05-09T12:32:00.053Z,94832.00
2023-05-09T12:34:28.994Z,94836.22
2023-05-09T12:36:58.466Z,94829.19
2023-05-09T12:39:26.697Z,94831.81
2023-05-09T12:42:01.473Z,94823.78
2023-05-09T12:44:29.908Z,94817.75
2023-05-09T12:46:58.243Z,94816.94
2023-05-09T12:49:26.078Z,94813.31
2023-05-09T12:51:55.637Z,94805.31
2023-05-09T12:54:23.768Z,94800.09
2023-05-09T12:56:53.188Z,94799.28
2023-05-09T12:59:24.525Z,94790.41
2023-05-09T13:01:52.673Z,94796.47
2023-05-09T13:04:20.772Z,94783.41
2023-05-09T13:06:51.878Z,94788.63
2023-05-09T13:09:20.782Z,94783.41
2023-05-09T13:11:48.694Z,94781.59
2023-05-09T13:14:16.278Z,94782.41
2023-05-09T13:16:44.665Z,94771.94
2023-05-09T13:19:12.196Z,94764.91
2023-05-09T13:21:39.996Z,94756.25
2023-05-09T13:24:07.916Z,94760.66
2023-05-09T13:26:36.728Z,94764.09
2023-05-09T13:29:04.274Z,94750.00
2023-05-09T13:31:31.853Z,94748.41
2023-05-09T13:33:59.342Z,94747.56
2023-05-09T13:36:26.772Z,94741.50
2023-05-09T13:38:54.291Z,94737.94
2023-05-09T13:41:22.283Z,94736.28
2023-05-09T13:43:51.096Z,94733.66
2023-05-09T13:46:18.547Z,94722.38
2023-05-09T13:48:47.578Z,94723.19
2023-05-09T13:51:15.308Z,94725.00
2023-05-09T13:53:42.699Z,94719.75
2023-05-09T13:56:10.679Z,94717.97
2023-05-09T13:58:38.118Z,94711.91
2023-05-09T14:01:07.657Z,94709.28
2023-05-09T14:03:35.700Z,94704.06
2023-05-09T14:06:03.629Z,94699.81
2023-05-09T14:08:31.122Z,94696.19
2023-05-09T14:10:59.655Z,94704.88
2023-05-09T14:13:27.330Z,94695.41
2023-05-09T14:15:54.859Z,94698.81
2023-05-09T14:18:23.700Z,94699.00
2023-05-09T14:20:51.114Z,94698.81
2023-05-09T14:23:19.330Z,94689.34
2023-05-09T14:25:46.959Z,94690.19
2023-05-09T14:28:14.676Z,94687.56
2023-05-09T14:30:42.514Z,94677.88
2023-05-09T14:33:09.997Z,94677.88
2023-05-09T14:35:41.224Z,94674.47
2023-05-09T14:38:09.223Z,94669.25
2023-05-09T14:40:37.064Z,94665.63
2023-05-09T14:43:04.693Z,94666.44
2023-05-09T14:45:32.861Z,94655.97
2023-05-09T14:48:00.482Z,94649.09
2023-05-09T14:50:28.014Z,94647.31
2023-05-09T14:52:56.822Z,94636.84
2023-05-09T14:55:24.296Z,94642.88
2023-05-09T14:57:51.763Z,94642.88
2023-05-09T15:00:21.856Z,94633.25
2023-05-09T15:02:50.196Z,94626.19
2023-05-09T15:05:17.930Z,94641.09
2023-05-09T15:07:45.420Z,94634.22
2023-05-09T15:10:14.738Z,94627.19
2023-05-09T15:12:42.513Z,94623.75
2023-05-09T15:15:13.893Z,94630.78
2023-05-09T15:17:41.606Z,94631.59
2023-05-09T15:20:09.420Z,94626.38
2023-05-09T15:22:36.913Z,94625.53
2023-05-09T15:25:06.195Z,94616.91
2023-05-09T15:27:35.196Z,94622.94
2023-05-09T15:30:02.752Z,94613.47
2023-05-09T15:32:30.236Z,94614.28
2023-05-09T15:34:57.789Z,94614.28
2023-05-09T15:37:25.335Z,94615.25
2023-05-09T15:39:52.949Z,94604.78
2023-05-09T15:42:20.389Z,94601.19
2023-05-09T15:44:49.242Z,94605.59
2023-05-09T15:47:16.692Z,94607.41
2023-05-09T15:49:44.152Z,94596.94
2023-05-09T15:52:11.948Z,94598.59
2023-05-09T15:54:40.063Z,94591.69
2023-05-09T15:57:08.174Z,94589.09
2023-05-09T15:59:35.741Z,94588.25
2023-05-09T16:02:04.535Z,94585.66
2023-05-09T16:04:33.058Z,94579.63
2023-05-09T16:07:01.731Z,94581.22
2023-05-09T16:09:29.179Z,94572.56
2023-05-09T16:11:56.803Z,94571.59
2023-05-09T16:14:24.359Z,94573.19
2023-05-09T16:16:53.513Z,94558.69
2023-05-09T16:19:22.293Z,94562.72
2023-05-09T16:21:50.138Z,94557.50
2023-05-09T16:24:17.725Z,94554.09
2023-05-09T16:26:45.169Z,94557.69
2023-05-09T16:29:13.650Z,94556.72
2023-05-09T16:31:41.202Z,94554.09
2023-05-09T16:34:09.001Z,94541.00
2023-05-09T16:36:38.334Z,94542.81
2023-05-09T16:39:06.105Z,94532.53
2023-05-09T16:41:33.571Z,94538.38
2023-05-09T16:44:01.017Z,94527.09
2023-05-09T16:46:28.466Z,94531.50
2023-05-09T16:48:56.105Z,94523.66
2023-05-09T16:51:23.651Z,94522.06
2023-05-09T16:53:52.455Z,94518.44
2023-05-09T16:56:19.901Z,94514.00
2023-05-09T16:58:49.279Z,94517.59
2023-05-09T17:01:16.818Z,94518.44
2023-05-09T17:03:44.304Z,94515.00
2023-05-09T17:06:11.895Z,94513.19
2023-05-09T17:08:39.321Z,94506.34
2023-05-09T17:11:09.765Z,94509.94
2023-05-09T17:13:37.369Z,94514.19
2023-05-09T17:16:05.038Z,94509.94
2023-05-09T17:18:37.434Z,94515.81
2023-05-09T17:21:05.639Z,94515.00
2023-05-09T17:23:33.116Z,94508.97
2023-05-09T17:26:00.544Z,94505.53
2023-05-09T17:28:29.431Z,94506.34
2023-05-09T17:30:57.957Z,94505.53
2023-05-09T17:33:25.396Z,94496.03
2023-05-09T17:35:52.881Z,94491.63
2023-05-09T17:38:20.306Z,94486.38
2023-05-09T17:40:47.751Z,94492.44
2023-05-09T17:43:15.781Z,94483.78
2023-05-09T17:45:45.960Z,94484.59
2023-05-09T17:48:13.514Z,94476.75
2023-05-09T17:50:41.047Z,94481.97
2023-05-09T17:53:09.479Z,94474.94
2023-05-09T17:55:37.089Z,94466.28
2023-05-09T17:58:04.534Z,94465.28
2023-05-09T18:00:32.107Z,94469.72
2023-05-09T18:03:01.394Z,94462.66
2023-05-09T18:05:28.940Z,94463.47
2023-05-09T18:07:57.141Z,94464.47
2023-05-09T18:10:24.647Z,94455.63
2023-05-09T18:12:52.121Z,94461.03
2023-05-09T18:15:19.601Z,94451.41
2023-05-09T18:17:48.392Z,94450.56
2023-05-09T18:20:17.487Z,94450.56
2023-05-09T18:22:45.095Z,94455.00
2023-05-09T18:25:12.613Z,94450.56
2023-05-09T18:27:40.077Z,94448.78
2023-05-09T18:30:08.354Z,94448.78
2023-05-09T18:32:35.800Z,94441.91
2023-05-09T18:35:04.034Z,94441.72
2023-05-09T18:37:32.860Z,94433.06
2023-05-09T18:40:00.323Z,94439.09
2023-05-09T18:42:28.021Z,94436.47
2023-05-09T18:44:55.879Z,94433.88
2023-05-09T18:47:23.951Z,94437.31
2023-05-09T18:49:51.382Z,94433.06
2023-05-09T18:52:20.463Z,94440.94
2023-05-09T18:54:49.456Z,94447.78
2023-05-09T18:57:16.914Z,94442.53
2023-05-09T18:59:45.564Z,94444.19
2023-05-09T19:02:12.995Z,94441.72
2023-05-09T19:04:40.481Z,94442.53
2023-05-09T19:49:18.075Z,94454.13
2023-05-09T19:51:45.632Z,94454.91
2023-05-09T19:54:14.167Z,94450.69
2023-05-09T19:56:41.637Z,94460.16
2023-05-09T19:59:09.113Z,94448.88
2023-05-09T20:01:36.622Z,94447.88
2023-05-09T20:04:04.109Z,94453.13
2023-05-09T20:06:32.967Z,94458.53
2023-05-09T20:09:00.393Z,94458.34
2023-05-09T20:11:27.873Z,94462.75
2023-05-09T20:13:55.758Z,94462.75
2023-05-09T20:16:23.626Z,94470.63
2023-05-09T20:18:52.252Z,94468.00
2023-05-09T20:21:19.781Z,94467.84
2023-05-09T20:23:48.562Z,94465.38
2023-05-09T20:26:16.025Z,94468.00
2023-05-09T20:28:43.506Z,94471.44
2023-05-09T20:31:11.019Z,94479.94
2023-05-09T20:33:39.954Z,94482.91
2023-05-09T20:36:09.378Z,94499.41
2023-05-09T20:38:36.866Z,94538.66
2023-05-09T20:41:05.666Z,94555.19
2023-05-09T20:43:33.093Z,94559.59
2023-05-09T20:46:00.984Z,94555.19
2023-05-09T20:48:28.562Z,94558.63
2023-05-09T20:50:56.073Z,94569.09
2023-05-09T20:53:26.390Z,94575.16
2023-05-09T20:55:54.189Z,94571.72
2023-05-09T20:58:23.001Z,94578.56
2023-05-09T21:00:50.449Z,94583.00
2023-05-09T21:03:18.071Z,94585.63
2023-05-09T21:05:45.618Z,94584.63
2023-05-09T21:08:13.081Z,94583.78
2023-05-09T21:10:41.167Z,94587.22
2023-05-09T21:13:08.634Z,94590.66
2023-05-09T21:15:37.473Z,94581.19
2023-05-09T21:18:05.255Z,94584.63
2023-05-09T21:20:32.700Z,94585.44
2023-05-09T21:23:00.128Z,94589.03
2023-05-09T21:25:27.604Z,94590.66
2023-05-09T21:27:56.351Z,94591.50
2023-05-09T21:30:23.821Z,94589.66
2023-05-09T21:32:52.800Z,94590.66
2023-05-09T21:35:20.253Z,94602.75
2023-05-09T21:37:48.532Z,94598.53
2023-05-09T21:40:16.287Z,94603.75
2023-05-09T21:42:44.223Z,94602.94
2023-05-09T21:45:11.874Z,94599.34
2023-05-09T21:47:39.929Z,94599.34
2023-05-09T21:50:09.253Z,94601.16
2023-05-09T21:52:36.724Z,94610.59
2023-05-09T21:55:04.283Z,94610.59
2023-05-09T21:57:31.713Z,94606.38
2023-05-09T22:00:01.344Z,94611.63
2023-05-09T22:02:29.592Z,94611.63
2023-05-09T22:04:57.041Z,94614.22
2023-05-09T22:07:25.873Z,94619.47
2023-05-09T22:09:54.093Z,94615.19
2023-05-09T22:12:21.557Z,94607.34
2023-05-09T22:14:56.458Z,94615.19
2023-05-09T22:17:24.949Z,94615.19
2023-05-09T22:19:52.592Z,94612.59
2023-05-09T22:22:20.212Z,94617.81
2023-05-09T22:24:49.723Z,94609.00
2023-05-09T22:27:17.274Z,94607.34
2023-05-09T22:29:45.600Z,94609.19
2023-05-09T22:32:13.079Z,94605.56
2023-05-09T22:34:40.842Z,94606.38
2023-05-09T22:37:08.280Z,94608.16
2023-05-09T22:39:35.677Z,94604.72
2023-05-09T22:42:04.682Z,94602.13
2023-05-09T22:44:32.468Z,94604.72
2023-05-09T22:46:59.905Z,94593.47
2023-05-09T22:49:27.405Z,94600.31
2023-05-09T22:51:54.897Z,94592.47
2023-05-09T22:54:22.820Z,94594.25
2023-05-09T22:56:50.339Z,94590.84
2023-05-09T22:59:19.089Z,94588.25
2023-05-09T23:01:47.088Z,94592.66
2023-05-09T23:04:14.548Z,94589.03
2023-05-09T23:06:42.003Z,94594.25
2023-05-09T23:09:10.548Z,94592.66
2023-05-09T23:11:38.281Z,94584.78
2023-05-09T23:14:06.355Z,94584.78
2023-05-09T23:16:35.358Z,94589.22
2023-05-09T23:19:02.915Z,94582.38
2023-05-09T23:21:30.325Z,94580.53
2023-05-09T23:23:57.851Z,94577.91
2023-05-09T23:29:06.710Z,94573.69
2023-05-09T23:31:35.757Z,94571.06
2023-05-09T23:34:03.216Z,94575.47
2023-05-09T23:36:31.047Z,94573.69
2023-05-09T23:38:58.496Z,94578.94
2023-05-09T23:41:25.920Z,94578.09
2023-05-09T23:43:53.356Z,94570.25
2023-05-09T23:46:21.157Z,94573.69
2023-05-09T23:48:50.370Z,94574.50
2023-05-09T23:51:19.977Z,94575.47
2023-05-09T23:53:47.418Z,94568.59
2023-05-09T23:56:14.931Z,94569.44
2023-05-09T23:58:43.048Z,94567.63
